createdAt,value
2018-03-04T00:00:28.030Z,76.35
2018-03-04T00:01:27.955Z,76.35
2018-03-04T00:02:27.832Z,76.26
2018-03-04T00:03:27.743Z,76.26
2018-03-04T00:04:27.678Z,76.17
2018-03-04T00:05:27.544Z,76.26
2018-03-04T00:06:27.410Z,76.64
2018-03-04T00:07:27.309Z,77.20
2018-03-04T00:08:27.247Z,78.05
2018-03-04T00:09:27.094Z,78.24
2018-03-04T00:10:27.021Z,78.15
2018-03-04T00:11:26.889Z,78.34
2018-03-04T00:12:26.794Z,78.52
2018-03-04T00:13:26.686Z,79.00
2018-03-04T00:14:26.582Z,78.86
2018-03-04T00:15:26.487Z,78.49
2018-03-04T00:16:26.425Z,79.43
2018-03-04T00:17:26.279Z,80.27
2018-03-04T00:18:26.185Z,79.80
2018-03-04T00:19:26.084Z,80.56
2018-03-04T00:20:25.973Z,80.84
2018-03-04T00:21:25.912Z,80.65
2018-03-04T00:22:25.852Z,81.03
2018-03-04T00:23:25.707Z,81.03
2018-03-04T00:24:25.593Z,81.88
2018-03-04T00:25:25.478Z,81.59
2018-03-04T00:26:25.389Z,82.07
2018-03-04T00:27:25.284Z,81.97
2018-03-04T00:28:25.200Z,82.44
2018-03-04T00:29:25.061Z,82.07
2018-03-04T00:30:24.981Z,82.44
2018-03-04T00:31:24.877Z,82.82
2018-03-04T00:32:24.789Z,82.73
2018-03-04T00:33:24.655Z,82.73
2018-03-04T00:34:24.599Z,82.54
2018-03-04T00:35:24.435Z,82.16
2018-03-04T00:36:24.356Z,82.35
2018-03-04T00:37:24.234Z,82.25
2018-03-04T00:38:24.183Z,82.82
2018-03-04T00:39:24.035Z,83.20
2018-03-04T00:40:23.952Z,83.39
2018-03-04T00:41:23.829Z,83.10
2018-03-04T00:42:23.726Z,83.86
2018-03-04T00:43:23.616Z,84.42
2018-03-04T00:44:23.514Z,84.89
2018-03-04T00:45:23.419Z,84.99
2018-03-04T00:46:23.387Z,85.64
2018-03-04T00:47:23.243Z,85.83
2018-03-04T00:48:23.138Z,86.11
2018-03-04T00:49:23.044Z,85.93
2018-03-04T00:50:22.911Z,85.64
2018-03-04T00:51:22.838Z,85.55
2018-03-04T00:52:22.770Z,85.36
2018-03-04T00:53:22.608Z,84.52
2018-03-04T00:54:22.543Z,84.99
2018-03-04T00:55:22.415Z,84.70
2018-03-04T00:56:22.320Z,84.89
2018-03-04T00:57:22.219Z,84.80
2018-03-04T00:58:22.140Z,84.80
2018-03-04T00:59:21.985Z,84.99
2018-03-04T01:00:21.881Z,84.80
2018-03-04T01:01:21.776Z,84.80
2018-03-04T01:02:21.669Z,84.80
2018-03-04T01:03:21.576Z,85.08
2018-03-04T01:04:21.503Z,85.46
2018-03-04T01:05:21.375Z,85.55
2018-03-04T01:06:21.267Z,85.74
2018-03-04T01:07:21.154Z,85.93
2018-03-04T01:08:21.051Z,86.30
2018-03-04T01:09:20.962Z,86.11
2018-03-04T01:10:20.936Z,87.25
2018-03-04T01:11:20.757Z,87.72
2018-03-04T01:12:20.669Z,88.00
2018-03-04T01:13:20.572Z,88.00
2018-03-04T01:14:20.467Z,87.81
2018-03-04T01:15:20.373Z,87.91
2018-03-04T01:16:20.314Z,87.34
2018-03-04T01:17:20.170Z,86.96
2018-03-04T01:18:20.047Z,86.96
2018-03-04T01:19:19.927Z,87.15
2018-03-04T01:20:19.845Z,87.44
2018-03-04T01:21:19.752Z,87.72
2018-03-04T01:22:19.673Z,88.47
2018-03-04T01:23:19.515Z,88.19
2018-03-04T01:24:19.446Z,88.95
2018-03-04T01:25:19.307Z,88.38
2018-03-04T01:26:19.210Z,87.62
2018-03-04T01:27:19.105Z,87.72
2018-03-04T01:28:19.074Z,88.00
2018-03-04T01:29:18.905Z,87.72
2018-03-04T01:30:18.794Z,87.72
2018-03-04T01:31:18.690Z,88.66
2018-03-04T01:32:18.593Z,87.81
2018-03-04T01:33:18.481Z,87.72
2018-03-04T01:34:18.403Z,87.62
2018-03-04T01:35:18.284Z,88.57
2018-03-04T01:36:18.169Z,88.38
2018-03-04T01:37:18.068Z,88.19
2018-03-04T01:38:18.002Z,88.19
2018-03-04T01:39:17.892Z,88.38
2018-03-04T01:40:17.849Z,88.10
2018-03-04T01:41:17.691Z,88.28
2018-03-04T01:42:17.589Z,88.28
2018-03-04T01:43:17.475Z,87.62
2018-03-04T01:44:17.371Z,88.57
2018-03-04T01:45:17.253Z,88.38
2018-03-04T01:46:17.214Z,88.66
2018-03-04T01:47:17.068Z,88.05
2018-03-04T01:48:16.977Z,87.68
2018-03-04T01:49:16.870Z,88.15
2018-03-04T01:50:16.739Z,88.24
2018-03-04T01:51:16.612Z,88.52
2018-03-04T01:52:16.564Z,88.15
2018-03-04T01:53:16.419Z,88.52
2018-03-04T01:54:16.358Z,89.09
2018-03-04T01:55:16.209Z,88.62
2018-03-04T01:56:16.110Z,88.90
2018-03-04T01:57:16.008Z,88.62
2018-03-04T01:58:15.931Z,89.18
2018-03-04T01:59:15.803Z,89.47
2018-03-04T02:00:15.712Z,89.65
2018-03-04T02:01:15.598Z,89.56
2018-03-04T02:02:15.484Z,90.03
2018-03-04T02:03:15.384Z,90.31
2018-03-04T02:04:15.352Z,90.03
2018-03-04T02:05:15.182Z,89.56
2018-03-04T02:06:15.096Z,90.22
2018-03-04T02:07:14.984Z,90.12
2018-03-04T02:08:14.896Z,89.56
2018-03-04T02:09:14.789Z,89.56
2018-03-04T02:10:14.738Z,89.75
2018-03-04T02:11:14.574Z,89.94
2018-03-04T02:12:14.459Z,89.75
2018-03-04T02:13:14.386Z,89.28
2018-03-04T02:14:14.283Z,89.56
2018-03-04T02:15:14.165Z,89.37
2018-03-04T02:16:14.105Z,89.18
2018-03-04T02:17:13.958Z,89.09
2018-03-04T02:18:13.840Z,89.75
2018-03-04T02:19:13.727Z,89.56
2018-03-04T02:20:13.620Z,90.12
2018-03-04T02:21:13.516Z,89.56
2018-03-04T02:22:13.459Z,89.56
2018-03-04T02:23:13.314Z,89.65
2018-03-04T02:24:13.205Z,89.37
2018-03-04T02:25:13.095Z,89.37
2018-03-04T02:26:13.000Z,88.95
2018-03-04T02:27:12.900Z,89.32
2018-03-04T02:28:12.819Z,89.04
2018-03-04T02:29:12.689Z,89.23
2018-03-04T02:30:12.621Z,89.61
2018-03-04T02:31:12.523Z,89.13
2018-03-04T02:32:12.387Z,88.47
2018-03-04T02:33:12.301Z,88.76
2018-03-04T02:34:12.218Z,88.76
2018-03-04T02:35:12.100Z,88.95
2018-03-04T02:36:11.978Z,88.85
2018-03-04T02:37:11.924Z,88.76
2018-03-04T02:38:11.787Z,88.19
2018-03-04T02:39:11.701Z,88.19
2018-03-04T02:40:11.650Z,88.10
2018-03-04T02:41:11.482Z,88.38
2018-03-04T02:42:11.392Z,88.28
2018-03-04T02:43:11.246Z,88.57
2018-03-04T02:44:11.172Z,88.19
2018-03-04T02:45:11.075Z,88.38
2018-03-04T02:46:10.990Z,88.47
2018-03-04T02:47:10.864Z,88.28
2018-03-04T02:48:10.748Z,88.66
2018-03-04T02:49:10.644Z,88.38
2018-03-04T02:50:10.552Z,88.38
2018-03-04T02:51:10.456Z,88.57
2018-03-04T02:52:10.376Z,88.19
2018-03-04T02:53:10.228Z,88.00
2018-03-04T02:54:10.118Z,87.72
2018-03-04T02:55:10.021Z,88.19
2018-03-04T02:56:09.929Z,88.00
2018-03-04T02:57:09.858Z,88.38
2018-03-04T02:58:09.784Z,88.19
2018-03-04T02:59:09.617Z,88.38
2018-03-04T03:00:09.564Z,88.19
2018-03-04T03:01:09.447Z,88.38
2018-03-04T03:02:09.335Z,87.81
2018-03-04T03:03:09.209Z,88.28
2018-03-04T03:04:09.144Z,88.10
2018-03-04T03:05:09.015Z,88.19
2018-03-04T03:06:08.926Z,88.57
2018-03-04T03:07:08.850Z,88.57
2018-03-04T03:08:08.727Z,88.47
2018-03-04T03:09:08.588Z,88.10
2018-03-04T03:10:08.520Z,87.81
2018-03-04T03:11:08.381Z,87.91
2018-03-04T03:12:08.279Z,88.47
2018-03-04T03:13:08.194Z,88.57
2018-03-04T03:14:08.074Z,88.57
2018-03-04T03:15:07.967Z,88.66
2018-03-04T03:16:07.914Z,88.57
2018-03-04T03:17:07.757Z,88.66
2018-03-04T03:18:07.663Z,88.66
2018-03-04T03:19:07.568Z,88.66
2018-03-04T03:20:07.455Z,88.85
2018-03-04T03:21:07.340Z,88.76
2018-03-04T03:22:07.319Z,88.19
2018-03-04T03:23:07.172Z,88.38
2018-03-04T03:24:07.085Z,88.66
2018-03-04T03:25:06.979Z,88.66
2018-03-04T03:26:06.874Z,88.57
2018-03-04T03:27:06.748Z,88.10
2018-03-04T03:28:06.683Z,88.57
2018-03-04T03:29:06.571Z,88.00
2018-03-04T03:30:06.443Z,88.28
2018-03-04T03:31:06.334Z,88.47
2018-03-04T03:32:06.235Z,88.28
2018-03-04T03:33:06.137Z,88.38
2018-03-04T03:34:06.083Z,88.47
2018-03-04T03:35:05.907Z,88.57
2018-03-04T03:36:05.806Z,88.76
2018-03-04T03:37:05.706Z,88.85
2018-03-04T03:38:05.601Z,88.95
2018-03-04T03:39:05.501Z,88.47
2018-03-04T03:40:06.223Z,88.66
2018-03-04T03:41:05.283Z,88.57
2018-03-04T03:42:05.201Z,88.57
2018-03-04T03:43:05.083Z,88.95
2018-03-04T03:44:04.985Z,89.27
2018-03-04T03:45:04.875Z,88.89
2018-03-04T03:46:04.835Z,88.99
2018-03-04T03:47:04.685Z,88.80
2018-03-04T03:48:04.632Z,88.23
2018-03-04T03:49:04.499Z,88.42
2018-03-04T03:50:04.415Z,88.42
2018-03-04T03:51:04.306Z,88.42
2018-03-04T03:52:04.234Z,88.52
2018-03-04T03:53:04.102Z,88.61
2018-03-04T03:54:04.004Z,88.61
2018-03-04T03:55:03.927Z,88.04
2018-03-04T03:56:03.801Z,88.42
2018-03-04T03:57:03.704Z,88.42
2018-03-04T03:58:03.665Z,87.76
2018-03-04T03:59:03.496Z,87.95
2018-03-04T04:00:03.354Z,87.95
2018-03-04T04:01:03.251Z,87.76
2018-03-04T04:02:03.159Z,87.38
2018-03-04T04:03:03.056Z,87.19
2018-03-04T04:04:02.981Z,87.38
2018-03-04T04:05:02.837Z,87.19
2018-03-04T04:06:02.746Z,87.38
2018-03-04T04:07:02.643Z,87.48
2018-03-04T04:08:02.548Z,88.04
2018-03-04T04:09:02.430Z,87.95
2018-03-04T04:10:02.407Z,87.86
2018-03-04T04:11:02.234Z,87.76
2018-03-04T04:12:02.166Z,88.23
2018-03-04T04:13:02.070Z,87.57
2018-03-04T04:14:01.969Z,87.48
2018-03-04T04:15:01.869Z,88.71
2018-03-04T04:16:01.798Z,88.42
2018-03-04T04:17:01.713Z,88.23
2018-03-04T04:18:01.546Z,88.42
2018-03-04T04:19:01.437Z,88.23
2018-03-04T04:20:01.354Z,88.14
2018-03-04T04:21:01.240Z,88.61
2018-03-04T04:22:01.220Z,88.61
2018-03-04T04:23:01.056Z,88.71
2018-03-04T04:24:00.942Z,88.71
2018-03-04T04:25:00.820Z,88.71
2018-03-04T04:26:00.726Z,88.61
2018-03-04T04:27:00.618Z,88.04
2018-03-04T04:28:00.623Z,88.42
2018-03-04T04:29:00.409Z,88.42
2018-03-04T04:30:00.322Z,88.52
2018-03-04T04:31:00.211Z,88.52
2018-03-04T04:32:00.110Z,88.14
2018-03-04T04:33:00.012Z,88.42
2018-03-04T04:33:59.955Z,88.04
2018-03-04T04:34:59.829Z,88.61
2018-03-04T04:35:59.724Z,88.80
2018-03-04T04:36:59.635Z,88.61
2018-03-04T04:37:59.532Z,88.52
2018-03-04T04:38:59.417Z,88.42
2018-03-04T04:39:59.382Z,88.71
2018-03-04T04:40:59.221Z,88.71
2018-03-04T04:41:59.171Z,87.76
2018-03-04T04:42:59.029Z,88.04
2018-03-04T04:43:58.934Z,88.14
2018-03-04T04:44:58.837Z,88.23
2018-03-04T04:45:58.778Z,88.23
2018-03-04T04:46:58.605Z,88.61
2018-03-04T04:47:58.529Z,88.52
2018-03-04T04:48:58.404Z,88.61
2018-03-04T04:49:58.298Z,88.61
2018-03-04T04:50:58.216Z,87.76
2018-03-04T04:51:58.142Z,87.48
2018-03-04T04:52:57.998Z,88.04
2018-03-04T04:53:57.937Z,87.95
2018-03-04T04:54:57.799Z,87.86
2018-03-04T04:55:57.704Z,87.76
2018-03-04T04:56:57.601Z,88.56
2018-03-04T04:57:57.525Z,88.75
2018-03-04T04:58:57.398Z,88.47
2018-03-04T04:59:57.290Z,88.09
2018-03-04T05:00:57.204Z,88.28
2018-03-04T05:01:57.163Z,88.65
2018-03-04T05:02:57.074Z,88.65
2018-03-04T05:03:56.975Z,88.09
2018-03-04T05:04:56.828Z,88.65
2018-03-04T05:05:56.722Z,89.03
2018-03-04T05:06:56.605Z,89.98
2018-03-04T05:07:56.541Z,89.69
2018-03-04T05:08:56.415Z,89.32
2018-03-04T05:09:56.333Z,89.32
2018-03-04T05:10:56.235Z,88.75
2018-03-04T05:11:56.123Z,88.65
2018-03-04T05:12:56.021Z,88.18
2018-03-04T05:13:55.891Z,88.37
2018-03-04T05:14:55.801Z,88.18
2018-03-04T05:15:55.728Z,87.90
2018-03-04T05:16:55.596Z,87.90
2018-03-04T05:17:55.506Z,87.71
2018-03-04T05:18:55.401Z,87.62
2018-03-04T05:19:55.311Z,87.24
2018-03-04T05:20:55.202Z,87.05
2018-03-04T05:21:55.154Z,87.34
2018-03-04T05:22:55.007Z,87.99
2018-03-04T05:23:54.904Z,87.15
2018-03-04T05:24:54.822Z,87.05
2018-03-04T05:25:54.730Z,87.34
2018-03-04T05:26:54.618Z,87.24
2018-03-04T05:27:54.620Z,87.15
2018-03-04T05:28:54.470Z,87.99
2018-03-04T05:29:54.353Z,87.52
2018-03-04T05:30:54.260Z,87.81
2018-03-04T05:31:54.188Z,87.62
2018-03-04T05:32:54.034Z,87.99
2018-03-04T05:33:53.995Z,87.81
2018-03-04T05:34:53.819Z,88.56
2018-03-04T05:35:53.711Z,88.84
2018-03-04T05:36:53.612Z,89.03
2018-03-04T05:37:53.506Z,89.69
2018-03-04T05:38:53.406Z,88.75
2018-03-04T05:39:53.366Z,88.75
2018-03-04T05:40:53.203Z,89.69
2018-03-04T05:41:53.113Z,89.98
2018-03-04T05:42:53.002Z,89.88
2018-03-04T05:43:52.926Z,89.98
2018-03-04T05:44:52.817Z,89.51
2018-03-04T05:45:52.759Z,88.84
2018-03-04T05:46:52.633Z,88.28
2018-03-04T05:47:52.515Z,88.18
2018-03-04T05:48:52.405Z,87.62
2018-03-04T05:49:52.309Z,87.62
2018-03-04T05:50:52.220Z,87.90
2018-03-04T05:51:52.174Z,87.71
2018-03-04T05:52:52.045Z,88.18
2018-03-04T05:53:51.926Z,87.81
2018-03-04T05:54:51.833Z,87.81
2018-03-04T05:55:51.764Z,87.81
2018-03-04T05:56:51.642Z,88.09
2018-03-04T05:57:51.602Z,87.81
2018-03-04T05:58:51.471Z,88.28
2018-03-04T05:59:51.357Z,88.47
2018-03-04T06:00:51.236Z,88.65
2018-03-04T06:01:51.166Z,89.32
2018-03-04T06:02:51.072Z,89.69
2018-03-04T06:03:50.958Z,89.51
2018-03-04T06:04:50.829Z,88.75
2018-03-04T06:05:50.725Z,88.70
2018-03-04T06:06:50.622Z,89.08
2018-03-04T06:07:50.513Z,88.70
2018-03-04T06:08:50.420Z,88.51
2018-03-04T06:09:50.352Z,89.36
2018-03-04T06:10:50.230Z,89.74
2018-03-04T06:11:50.127Z,89.36
2018-03-04T06:12:50.019Z,89.17
2018-03-04T06:13:49.936Z,88.79
2018-03-04T06:14:49.815Z,88.89
2018-03-04T06:15:49.769Z,88.89
2018-03-04T06:16:49.659Z,89.36
2018-03-04T06:17:49.551Z,90.02
2018-03-04T06:18:49.432Z,90.02
2018-03-04T06:19:49.386Z,90.87
2018-03-04T06:20:49.255Z,90.87
2018-03-04T06:21:49.196Z,90.12
2018-03-04T06:22:49.058Z,90.02
2018-03-04T06:23:48.994Z,89.93
2018-03-04T06:24:48.855Z,89.74
2018-03-04T06:25:48.752Z,90.87
2018-03-04T06:26:48.651Z,90.68
2018-03-04T06:27:48.567Z,90.78
2018-03-04T06:28:48.488Z,89.36
2018-03-04T06:29:48.409Z,89.36
2018-03-04T06:30:48.254Z,89.93
2018-03-04T06:31:48.147Z,89.83
2018-03-04T06:32:48.061Z,90.31
2018-03-04T06:33:48.021Z,90.97
2018-03-04T06:34:47.849Z,91.82
2018-03-04T06:35:47.758Z,91.91
2018-03-04T06:36:47.679Z,92.10
2018-03-04T06:37:47.572Z,93.75
2018-03-04T06:38:47.459Z,93.94
2018-03-04T06:39:47.389Z,93.56
2018-03-04T06:40:47.267Z,93.84
2018-03-04T06:41:47.167Z,92.05
2018-03-04T06:42:47.110Z,90.45
2018-03-04T06:43:46.992Z,91.30
2018-03-04T06:44:46.900Z,91.39
2018-03-04T06:45:46.814Z,92.33
2018-03-04T06:46:46.703Z,89.78
2018-03-04T06:47:46.608Z,88.84
2018-03-04T06:48:46.563Z,89.12
2018-03-04T06:49:46.458Z,88.65
2018-03-04T06:50:46.395Z,88.09
2018-03-04T06:51:53.748Z,87.05
2018-03-04T06:52:53.603Z,88.56
2018-03-04T06:53:53.467Z,89.22
2018-03-04T06:54:53.405Z,88.93
2018-03-04T06:55:53.263Z,88.18
2018-03-04T06:56:53.191Z,89.50
2018-03-04T06:57:53.125Z,89.69
2018-03-04T06:58:52.981Z,89.78
2018-03-04T06:59:52.873Z,88.93
2018-03-04T07:00:52.793Z,88.46
2018-03-04T07:01:52.695Z,88.93
2018-03-04T07:02:52.547Z,89.69
2018-03-04T07:03:52.507Z,89.78
2018-03-04T07:04:52.391Z,89.97
2018-03-04T07:05:52.260Z,89.88
2018-03-04T07:06:52.168Z,90.26
2018-03-04T07:07:52.065Z,90.82
2018-03-04T07:08:51.960Z,90.92
2018-03-04T07:09:51.886Z,90.54
2018-03-04T07:10:51.798Z,90.45
2018-03-04T07:11:51.684Z,90.40
2018-03-04T07:12:51.564Z,89.73
2018-03-04T07:13:51.484Z,89.83
2018-03-04T07:14:51.392Z,90.11
2018-03-04T07:15:51.333Z,90.30
2018-03-04T07:16:51.205Z,89.54
2018-03-04T07:17:51.114Z,89.45
2018-03-04T07:18:51.015Z,90.21
2018-03-04T07:19:50.917Z,90.02
2018-03-04T07:20:50.827Z,90.11
2018-03-04T07:21:50.715Z,90.02
2018-03-04T07:22:50.619Z,90.59
2018-03-04T07:23:50.537Z,89.45
2018-03-04T07:24:50.446Z,88.51
2018-03-04T07:25:50.295Z,87.85
2018-03-04T07:26:50.209Z,87.37
2018-03-04T07:27:50.156Z,87.70
2018-03-04T07:28:50.015Z,88.46
2018-03-04T07:29:49.912Z,87.61
2018-03-04T07:30:49.808Z,88.08
2018-03-04T07:31:49.710Z,87.79
2018-03-04T07:32:49.622Z,87.98
2018-03-04T07:33:49.562Z,88.08
2018-03-04T07:34:49.426Z,87.13
2018-03-04T07:35:49.340Z,86.76
2018-03-04T07:36:49.233Z,86.66
2018-03-04T07:37:49.148Z,86.57
2018-03-04T07:38:49.048Z,86.94
2018-03-04T07:39:49.007Z,86.47
2018-03-04T07:40:48.856Z,85.72
2018-03-04T07:41:48.770Z,85.62
2018-03-04T07:42:48.689Z,85.81
2018-03-04T07:43:48.584Z,86.00
2018-03-04T07:44:48.472Z,86.10
2018-03-04T07:45:48.461Z,86.85
2018-03-04T07:46:48.279Z,86.90
2018-03-04T07:47:48.203Z,86.52
2018-03-04T07:48:48.102Z,86.23
2018-03-04T07:49:48.029Z,85.57
2018-03-04T07:50:47.871Z,85.28
2018-03-04T07:51:47.814Z,85.38
2018-03-04T07:52:47.686Z,84.44
2018-03-04T07:53:47.594Z,84.25
2018-03-04T07:54:47.499Z,85.10
2018-03-04T07:55:47.392Z,84.91
2018-03-04T07:56:47.324Z,83.68
2018-03-04T07:57:47.224Z,83.59
2018-03-04T07:58:47.169Z,84.29
2018-03-04T07:59:47.004Z,83.15
2018-03-04T08:00:46.922Z,82.12
2018-03-04T08:01:46.839Z,81.45
2018-03-04T08:02:46.720Z,82.59
2018-03-04T08:03:46.728Z,82.02
2018-03-04T08:04:46.571Z,80.98
2018-03-04T08:05:46.473Z,79.98
2018-03-04T08:06:46.376Z,79.22
2018-03-04T08:07:46.291Z,79.13
2018-03-04T08:08:46.156Z,78.37
2018-03-04T08:09:46.120Z,77.51
2018-03-04T08:10:46.004Z,76.86
2018-03-04T08:11:45.883Z,76.67
2018-03-04T08:12:45.805Z,76.48
2018-03-04T08:13:45.686Z,75.91
2018-03-04T08:14:45.624Z,76.57
2018-03-04T08:15:45.540Z,76.51
2018-03-04T08:16:45.394Z,75.00
2018-03-04T08:17:45.322Z,75.57
2018-03-04T08:18:45.215Z,74.33
2018-03-04T08:19:45.117Z,74.24
2018-03-04T08:20:45.009Z,73.43
2018-03-04T08:21:44.979Z,72.00
2018-03-04T08:22:44.832Z,71.62
2018-03-04T08:23:44.754Z,70.39
2018-03-04T08:24:44.637Z,70.20
2018-03-04T08:25:44.543Z,70.58
2018-03-04T08:26:44.459Z,71.12
2018-03-04T08:27:44.393Z,71.91
2018-03-04T08:28:44.277Z,70.30
2018-03-04T08:29:44.196Z,68.73
2018-03-04T08:30:44.090Z,66.86
2018-03-04T08:31:44.003Z,66.20
2018-03-04T08:32:43.909Z,64.24
2018-03-04T08:33:43.836Z,63.48
2018-03-04T08:34:43.740Z,63.42
2018-03-04T08:35:43.621Z,63.23
2018-03-04T08:36:43.557Z,64.24
2018-03-04T08:37:43.473Z,63.82
2018-03-04T08:38:43.393Z,65.34
2018-03-04T08:39:43.343Z,65.91
2018-03-04T08:40:43.167Z,65.91
2018-03-04T08:41:43.055Z,66.58
2018-03-04T08:42:42.973Z,66.10
2018-03-04T08:43:42.882Z,65.25
2018-03-04T08:44:42.779Z,65.09
2018-03-04T08:45:42.764Z,63.86
2018-03-04T08:46:42.586Z,61.99
2018-03-04T08:47:42.518Z,60.79
2018-03-04T08:48:42.438Z,60.10
2018-03-04T08:49:42.331Z,61.90
2018-03-04T08:50:42.243Z,63.10
2018-03-04T08:51:42.189Z,62.27
2018-03-04T08:52:42.098Z,61.96
2018-03-04T08:53:42.012Z,63.13
2018-03-04T08:54:41.888Z,61.80
2018-03-04T08:55:41.795Z,63.39
2018-03-04T08:56:41.688Z,62.91
2018-03-04T08:57:41.675Z,63.39
2018-03-04T08:58:41.531Z,64.52
2018-03-04T08:59:41.448Z,65.16
2018-03-04T09:00:41.357Z,66.16
2018-03-04T09:01:41.238Z,68.06
2018-03-04T09:02:41.186Z,68.35
2018-03-04T09:03:41.148Z,69.73
2018-03-04T09:04:41.027Z,71.81
2018-03-04T09:05:40.923Z,72.86
2018-03-04T09:06:40.781Z,73.39
2018-03-04T09:07:40.701Z,73.33
2018-03-04T09:08:40.613Z,73.14
2018-03-04T09:09:40.539Z,72.86
2018-03-04T09:10:40.422Z,72.04
2018-03-04T09:11:40.308Z,71.28
2018-03-04T09:12:40.241Z,71.00
2018-03-04T09:13:40.144Z,71.00
2018-03-04T09:14:40.054Z,71.66
2018-03-04T09:15:39.995Z,70.90
2018-03-04T09:16:39.859Z,71.00
2018-03-04T09:17:39.797Z,69.90
2018-03-04T09:18:39.684Z,70.43
2018-03-04T09:19:39.630Z,71.38
2018-03-04T09:20:39.532Z,70.37
2018-03-04T09:21:39.444Z,69.52
2018-03-04T09:22:39.357Z,69.99
2018-03-04T09:23:39.272Z,69.52
2018-03-04T09:24:39.153Z,68.70
2018-03-04T09:25:39.079Z,68.70
2018-03-04T09:26:38.962Z,68.95
2018-03-04T09:27:38.919Z,67.94
2018-03-04T09:28:38.857Z,66.36
2018-03-04T09:29:38.719Z,66.71
2018-03-04T09:30:38.587Z,65.31
2018-03-04T09:31:38.519Z,64.17
2018-03-04T09:32:38.413Z,63.13
2018-03-04T09:33:38.403Z,64.46
2018-03-04T09:34:38.210Z,63.45
2018-03-04T09:35:38.129Z,62.78
2018-03-04T09:36:38.029Z,62.97
2018-03-04T09:37:37.943Z,63.54
2018-03-04T09:38:37.860Z,62.66
2018-03-04T09:39:37.811Z,64.21
2018-03-04T09:40:37.670Z,62.78
2018-03-04T09:41:37.611Z,63.01
2018-03-04T09:42:37.496Z,62.97
2018-03-04T09:43:37.439Z,63.23
2018-03-04T09:44:37.372Z,63.35
2018-03-04T09:45:37.322Z,61.29
2018-03-04T09:46:37.166Z,61.01
2018-03-04T09:47:37.091Z,58.18
2018-03-04T09:48:36.986Z,59.96
2018-03-04T09:49:36.925Z,60.50
2018-03-04T09:50:36.820Z,60.88
2018-03-04T09:51:36.804Z,61.33
2018-03-04T09:52:36.656Z,63.39
2018-03-04T09:53:36.568Z,64.17
2018-03-04T09:54:36.483Z,64.46
2018-03-04T09:55:36.381Z,63.42
2018-03-04T09:56:36.268Z,63.79
2018-03-04T09:57:36.216Z,63.17
2018-03-04T09:58:36.086Z,63.60
2018-03-04T09:59:36.038Z,63.26
2018-03-04T10:00:35.914Z,61.32
2018-03-04T10:01:35.843Z,59.33
2018-03-04T10:02:35.731Z,59.58
2018-03-04T10:03:35.709Z,60.18
2018-03-04T10:04:35.562Z,60.69
2018-03-04T10:05:35.495Z,61.01
2018-03-04T10:06:35.388Z,62.40
2018-03-04T10:07:35.298Z,62.31
2018-03-04T10:08:35.211Z,64.37
2018-03-04T10:09:35.227Z,65.50
2018-03-04T10:10:35.082Z,64.56
2018-03-04T10:11:35.003Z,63.13
2018-03-04T10:12:34.863Z,63.32
2018-03-04T10:13:34.778Z,63.51
2018-03-04T10:14:34.703Z,64.14
2018-03-04T10:15:34.648Z,65.41
2018-03-04T10:16:34.528Z,63.26
2018-03-04T10:17:34.422Z,62.43
2018-03-04T10:18:34.333Z,62.12
2018-03-04T10:19:34.255Z,61.26
2018-03-04T10:20:34.193Z,61.39
2018-03-04T10:21:34.164Z,60.18
2018-03-04T10:22:33.971Z,60.06
2018-03-04T10:23:33.894Z,60.82
2018-03-04T10:24:33.792Z,60.91
2018-03-04T10:25:33.729Z,60.09
2018-03-04T10:26:33.628Z,61.10
2018-03-04T10:27:33.571Z,61.26
2018-03-04T10:28:33.451Z,61.45
2018-03-04T10:29:33.418Z,62.85
2018-03-04T10:30:33.275Z,64.27
2018-03-04T10:31:33.285Z,64.08
2018-03-04T10:32:33.088Z,65.31
2018-03-04T10:33:33.061Z,65.50
2018-03-04T10:34:32.923Z,65.47
2018-03-04T10:35:32.835Z,65.85
2018-03-04T10:36:32.771Z,66.42
2018-03-04T10:37:32.684Z,66.42
2018-03-04T10:38:32.630Z,67.37
2018-03-04T10:39:32.518Z,68.57
2018-03-04T10:40:32.438Z,68.48
2018-03-04T10:41:32.323Z,69.33
2018-03-04T10:42:32.288Z,69.13
2018-03-04T10:43:32.221Z,69.71
2018-03-04T10:44:32.082Z,69.80
2018-03-04T10:45:32.128Z,70.47
2018-03-04T10:46:31.899Z,70.28
2018-03-04T10:47:31.780Z,70.18
2018-03-04T10:48:31.672Z,70.56
2018-03-04T10:49:31.592Z,70.84
2018-03-04T10:50:31.502Z,69.74
2018-03-04T10:51:31.425Z,69.74
2018-03-04T10:52:31.352Z,68.98
2018-03-04T10:53:31.212Z,69.08
2018-03-04T10:54:31.120Z,68.70
2018-03-04T10:55:31.040Z,68.79
2018-03-04T10:56:30.956Z,68.41
2018-03-04T10:57:30.889Z,67.94
2018-03-04T10:58:30.789Z,68.98
2018-03-04T10:59:30.674Z,69.55
2018-03-04T11:00:30.578Z,68.23
2018-03-04T11:01:30.515Z,68.35
2018-03-04T11:02:30.435Z,67.40
2018-03-04T11:03:30.397Z,66.83
2018-03-04T11:04:30.255Z,67.12
2018-03-04T11:05:30.219Z,67.02
2018-03-04T11:06:30.071Z,67.31
2018-03-04T11:07:29.977Z,66.83
2018-03-04T11:08:29.875Z,67.21
2018-03-04T11:09:29.875Z,65.69
2018-03-04T11:10:29.730Z,66.17
2018-03-04T11:11:29.647Z,66.74
2018-03-04T11:12:29.515Z,65.98
2018-03-04T11:13:29.415Z,66.36
2018-03-04T11:14:29.340Z,66.36
2018-03-04T11:15:29.239Z,65.79
2018-03-04T11:16:29.130Z,66.46
2018-03-04T11:17:29.031Z,66.46
2018-03-04T11:18:28.949Z,66.74
2018-03-04T11:19:28.865Z,65.92
2018-03-04T11:20:28.844Z,65.63
2018-03-04T11:21:28.742Z,63.57
2018-03-04T11:22:28.585Z,63.48
2018-03-04T11:23:28.510Z,63.39
2018-03-04T11:24:28.419Z,62.62
2018-03-04T11:25:28.343Z,63.35
2018-03-04T11:26:28.261Z,64.24
2018-03-04T11:27:28.204Z,63.17
2018-03-04T11:28:28.101Z,63.73
2018-03-04T11:29:27.976Z,65.92
2018-03-04T11:30:27.897Z,65.16
2018-03-04T11:31:27.822Z,65.00
2018-03-04T11:32:27.735Z,63.10
2018-03-04T11:33:27.680Z,62.18
2018-03-04T11:34:27.564Z,61.90
2018-03-04T11:35:27.504Z,61.13
2018-03-04T11:36:27.362Z,61.52
2018-03-04T11:37:27.286Z,61.20
2018-03-04T11:38:27.239Z,61.13
2018-03-04T11:39:27.146Z,61.39
2018-03-04T11:40:26.987Z,62.62
2018-03-04T11:41:26.906Z,61.96
2018-03-04T11:42:26.865Z,62.56
2018-03-04T11:43:27.003Z,62.12
2018-03-04T11:44:26.827Z,61.10
2018-03-04T11:45:26.817Z,59.03
2018-03-04T11:46:26.764Z,56.11
2018-03-04T11:47:26.655Z,54.78
2018-03-04T11:48:26.885Z,53.61
2018-03-04T11:49:26.541Z,54.18
2018-03-04T11:50:26.120Z,55.87
2018-03-04T11:51:26.086Z,57.17
2018-03-04T11:52:25.956Z,58.57
2018-03-04T11:53:25.887Z,61.20
2018-03-04T11:54:25.785Z,62.05
2018-03-04T11:55:25.688Z,61.99
2018-03-04T11:56:25.606Z,61.13
2018-03-04T11:57:25.559Z,60.75
2018-03-04T11:58:25.419Z,60.78
2018-03-04T11:59:25.323Z,59.90
2018-03-04T12:00:25.235Z,60.66
2018-03-04T12:01:25.156Z,61.99
2018-03-04T12:02:25.106Z,61.96
2018-03-04T12:03:25.025Z,62.91
2018-03-04T12:04:24.872Z,64.34
2018-03-04T12:05:24.794Z,64.14
2018-03-04T12:06:24.691Z,63.10
2018-03-04T12:07:24.664Z,62.53
2018-03-04T12:08:24.553Z,62.56
2018-03-04T12:09:24.479Z,61.16
2018-03-04T12:10:24.353Z,59.58
2018-03-04T12:11:24.265Z,58.25
2018-03-04T12:12:24.164Z,57.89
2018-03-04T12:13:24.119Z,55.92
2018-03-04T12:14:24.024Z,53.64
2018-03-04T12:15:24.012Z,54.85
2018-03-04T12:16:23.836Z,57.07
2018-03-04T12:17:23.777Z,59.52
2018-03-04T12:18:23.709Z,60.94
2018-03-04T12:19:23.594Z,61.61
2018-03-04T12:20:23.516Z,61.90
2018-03-04T12:21:23.466Z,61.90
2018-03-04T12:22:23.325Z,62.18
2018-03-04T12:23:23.271Z,61.23
2018-03-04T12:24:23.130Z,60.94
2018-03-04T12:25:23.192Z,61.74
2018-03-04T12:26:22.960Z,61.07
2018-03-04T12:27:22.913Z,59.67
2018-03-04T12:28:22.770Z,58.53
2018-03-04T12:29:22.672Z,58.25
2018-03-04T12:30:22.582Z,58.44
2018-03-04T12:31:22.533Z,59.36
2018-03-04T12:32:22.431Z,58.79
2018-03-04T12:33:22.380Z,59.48
2018-03-04T12:34:22.270Z,59.39
2018-03-04T12:35:22.156Z,58.08
2018-03-04T12:36:22.075Z,55.83
2018-03-04T12:37:21.976Z,54.88
2018-03-04T12:38:21.907Z,54.59
2018-03-04T12:39:21.897Z,54.39
2018-03-04T12:40:21.762Z,53.56
2018-03-04T12:41:21.630Z,52.64
2018-03-04T12:42:21.624Z,51.33
2018-03-04T12:43:21.473Z,51.04
2018-03-04T12:44:21.399Z,51.14
2018-03-04T12:45:21.319Z,49.54
2018-03-04T12:46:21.198Z,48.97
2018-03-04T12:47:21.139Z,48.28
2018-03-04T12:48:21.032Z,48.21
2018-03-04T12:49:20.953Z,47.61
2018-03-04T12:50:20.890Z,48.57
2018-03-04T12:51:20.854Z,48.59